createdAt,value
2019-01-22T00:01:53.102Z,53.23
2019-01-22T00:04:21.367Z,61.13
2019-01-22T00:06:49.984Z,53.40
2019-01-22T00:09:18.465Z,50.05
2019-01-22T00:11:46.922Z,48.73
2019-01-22T00:14:15.851Z,55.03
2019-01-22T00:16:44.587Z,54.35
2019-01-22T00:19:13.294Z,49.55
2019-01-22T00:21:41.764Z,50.83
2019-01-22T00:24:11.699Z,53.73
2019-01-22T00:26:39.973Z,48.98
2019-01-22T00:29:08.622Z,50.50
2019-01-22T00:31:36.902Z,56.73
2019-01-22T00:34:05.923Z,49.13
2019-01-22T00:36:34.708Z,57.03
2019-01-22T00:39:04.190Z,48.90
2019-01-22T00:41:33.093Z,50.50
2019-01-22T00:44:01.581Z,48.65
2019-01-22T00:46:30.336Z,48.78
2019-01-22T00:48:58.869Z,51.28
2019-01-22T00:51:27.198Z,48.52
2019-01-22T00:53:55.504Z,53.90
2019-01-22T00:56:24.482Z,52.60
2019-01-22T00:58:53.069Z,51.83
2019-01-22T01:01:21.521Z,52.23
2019-01-22T01:03:49.894Z,44.35
2019-01-22T01:06:18.272Z,57.60
2019-01-22T01:08:46.609Z,58.13
2019-01-22T01:11:15.026Z,51.68
2019-01-22T01:13:43.845Z,49.08
2019-01-22T01:16:12.161Z,52.85
2019-01-22T01:18:40.579Z,50.67
2019-01-22T01:21:08.895Z,44.58
2019-01-22T01:23:37.660Z,46.23
2019-01-22T01:26:06.037Z,53.30
2019-01-22T01:28:34.280Z,47.80
2019-01-22T01:31:02.761Z,43.92
2019-01-22T01:33:31.135Z,47.35
2019-01-22T01:35:59.526Z,41.35
2019-01-22T01:38:27.926Z,47.53
2019-01-22T01:40:56.379Z,43.60
2019-01-22T01:43:24.881Z,52.27
2019-01-22T01:45:53.455Z,42.88
2019-01-22T01:48:21.842Z,42.98
2019-01-22T01:50:50.153Z,42.17
2019-01-22T01:53:23.813Z,52.73
2019-01-22T01:55:48.609Z,56.02
2019-01-22T01:58:17.181Z,46.37
2019-01-22T02:00:45.503Z,55.78
2019-01-22T02:03:14.141Z,43.58
2019-01-22T02:05:42.632Z,41.30
2019-01-22T02:08:10.923Z,40.33
2019-01-22T02:10:39.283Z,36.63
2019-01-22T02:13:08.989Z,46.85
2019-01-22T02:15:48.088Z,38.73
2019-01-22T02:18:33.051Z,45.35
2019-01-22T02:21:15.153Z,42.53
2019-01-22T02:23:47.916Z,40.28
2019-01-22T02:26:30.818Z,44.27
2019-01-22T02:29:00.765Z,37.28
2019-01-22T02:31:45.727Z,41.05
2019-01-22T02:34:24.651Z,40.38
2019-01-22T02:37:03.602Z,38.60
2019-01-22T02:39:33.429Z,35.58
2019-01-22T02:42:03.333Z,38.15
2019-01-22T02:44:48.706Z,40.00
2019-01-22T02:47:18.600Z,42.23
2019-01-22T02:49:48.417Z,38.70
2019-01-22T02:52:21.624Z,41.28
2019-01-22T02:54:51.715Z,39.90
2019-01-22T02:57:21.548Z,41.83
2019-01-22T02:59:54.093Z,44.95
2019-01-22T03:02:36.325Z,40.33
2019-01-22T03:05:09.396Z,46.53
2019-01-22T03:07:51.718Z,39.73
2019-01-22T03:10:21.609Z,37.48
2019-01-22T03:12:52.025Z,40.63
2019-01-22T03:15:22.151Z,36.98
2019-01-22T03:18:07.410Z,44.93
2019-01-22T03:20:37.322Z,43.68
2019-01-22T03:23:24.579Z,38.65
2019-01-22T03:26:09.431Z,42.90
2019-01-22T03:28:39.333Z,38.80
2019-01-22T03:31:09.550Z,34.33
2019-01-22T03:33:48.098Z,42.78
2019-01-22T03:36:23.919Z,38.08
2019-01-22T03:39:02.672Z,41.83
2019-01-22T03:41:41.754Z,38.83
2019-01-22T03:44:14.654Z,42.00
2019-01-22T03:46:50.285Z,37.08
2019-01-22T03:49:20.915Z,42.62
2019-01-22T03:51:50.705Z,41.70
2019-01-22T03:54:30.090Z,43.20
2019-01-22T03:57:00.005Z,37.45
2019-01-22T03:59:28.752Z,43.35
2019-01-22T04:01:57.272Z,42.27
2019-01-22T04:04:25.829Z,36.08
2019-01-22T04:06:54.949Z,41.48
2019-01-22T04:09:24.693Z,44.15
2019-01-22T04:11:53.134Z,35.68
2019-01-22T04:14:21.493Z,33.50
2019-01-22T04:16:49.857Z,35.65
2019-01-22T04:19:18.204Z,35.95
2019-01-22T04:21:46.610Z,36.38
2019-01-22T04:24:25.875Z,36.85
2019-01-22T04:26:58.947Z,41.92
2019-01-22T04:29:37.787Z,35.92
2019-01-22T04:32:07.652Z,33.20
2019-01-22T04:34:38.018Z,32.42
2019-01-22T04:37:10.569Z,41.63
2019-01-22T04:39:40.705Z,38.53
2019-01-22T04:42:10.522Z,38.80
2019-01-22T04:44:52.929Z,37.80
2019-01-22T04:47:39.602Z,37.17
2019-01-22T04:50:23.059Z,33.75
2019-01-22T04:52:55.913Z,39.50
2019-01-22T04:55:52.059Z,46.13
2019-01-22T04:58:25.727Z,44.43
2019-01-22T05:01:12.465Z,38.13
2019-01-22T05:03:47.163Z,47.23
2019-01-22T05:06:33.960Z,40.98
2019-01-22T05:09:18.735Z,42.23
2019-01-22T05:12:08.141Z,43.23
2019-01-22T05:14:48.521Z,44.60
2019-01-22T05:17:29.348Z,39.70
2019-01-22T05:20:01.750Z,41.95
2019-01-22T05:22:36.733Z,38.50
2019-01-22T05:25:14.124Z,42.45
2019-01-22T05:27:54.677Z,41.25
2019-01-22T05:30:32.314Z,40.88
2019-01-22T05:33:20.624Z,39.35
2019-01-22T05:36:10.653Z,45.20
2019-01-22T05:38:48.854Z,41.08
2019-01-22T05:41:37.399Z,41.83
2019-01-22T05:44:20.694Z,36.88
2019-01-22T05:47:16.512Z,35.83
2019-01-22T05:49:57.006Z,44.73
2019-01-22T05:52:44.132Z,42.70
2019-01-22T05:55:31.285Z,39.20
2019-01-22T05:58:36.899Z,38.88
2019-01-22T06:01:08.685Z,40.85
2019-01-22T06:03:40.634Z,37.75
2019-01-22T06:06:18.779Z,41.73
2019-01-22T06:09:10.277Z,39.30
2019-01-22T06:11:43.706Z,40.98
2019-01-22T06:14:14.232Z,35.55
2019-01-22T06:16:47.145Z,36.08
2019-01-22T06:19:29.756Z,36.80
2019-01-22T06:22:17.317Z,37.20
2019-01-22T06:24:59.867Z,37.42
2019-01-22T06:27:29.293Z,40.35
2019-01-22T06:30:17.510Z,33.73
2019-01-22T06:32:47.707Z,35.68
2019-01-22T06:35:17.876Z,35.98
2019-01-22T06:37:50.661Z,42.93
2019-01-22T06:40:23.607Z,39.38
2019-01-22T06:43:10.431Z,39.03
2019-01-22T06:45:40.567Z,39.60
2019-01-22T06:48:20.208Z,34.20
2019-01-22T06:50:59.254Z,39.35
2019-01-22T06:53:35.371Z,42.25
2019-01-22T06:56:17.705Z,41.75
2019-01-22T06:58:56.903Z,38.05
2019-01-22T07:01:27.424Z,40.60
2019-01-22T07:04:01.221Z,39.08
2019-01-22T07:06:34.866Z,33.83
2019-01-22T07:09:23.320Z,37.70
2019-01-22T07:11:56.442Z,40.10
2019-01-22T07:14:32.419Z,40.60
2019-01-22T07:17:02.542Z,35.23
2019-01-22T07:19:32.654Z,37.17
2019-01-22T07:22:11.660Z,36.28
2019-01-22T07:24:46.716Z,43.75
2019-01-22T07:27:19.630Z,39.20
2019-01-22T07:29:52.690Z,32.73
2019-01-22T07:32:31.710Z,38.25
2019-01-22T07:35:01.832Z,40.23
2019-01-22T07:37:32.046Z,36.38
2019-01-22T07:40:05.115Z,35.78
2019-01-22T07:42:47.879Z,39.73
2019-01-22T07:45:20.937Z,38.98
2019-01-22T07:47:51.058Z,39.27
2019-01-22T07:50:21.181Z,36.73
2019-01-22T07:52:54.077Z,33.60
2019-01-22T07:55:36.225Z,31.73
2019-01-22T07:58:15.713Z,36.23
2019-01-22T08:01:02.561Z,38.10
2019-01-22T08:03:50.882Z,38.13
2019-01-22T08:06:21.054Z,35.75
2019-01-22T08:08:54.255Z,36.15
2019-01-22T08:11:41.166Z,42.75
2019-01-22T08:14:11.386Z,38.80
2019-01-22T08:16:41.947Z,36.40
2019-01-22T08:19:30.314Z,30.02
2019-01-22T08:22:18.607Z,37.10
2019-01-22T08:24:49.056Z,38.98
2019-01-22T08:27:22.118Z,36.00
2019-01-22T08:29:52.335Z,37.10
2019-01-22T08:32:34.397Z,40.70
2019-01-22T08:35:22.607Z,38.63
2019-01-22T08:37:55.156Z,38.60
2019-01-22T08:40:24.998Z,39.80
2019-01-22T08:42:58.083Z,36.20
2019-01-22T08:45:45.104Z,34.17
2019-01-22T08:48:27.216Z,36.27
2019-01-22T08:51:00.249Z,39.80
2019-01-22T08:53:30.089Z,34.30
2019-01-22T08:55:59.970Z,39.07
2019-01-22T08:58:42.938Z,40.30
2019-01-22T09:01:15.874Z,38.67
2019-01-22T09:03:48.582Z,37.90
2019-01-22T09:06:30.650Z,36.33
2019-01-22T09:09:15.502Z,31.77
2019-01-22T09:11:45.433Z,27.97
2019-01-22T09:14:18.313Z,35.00
2019-01-22T09:16:48.143Z,35.00
2019-01-22T09:19:17.980Z,39.87
2019-01-22T09:21:58.627Z,37.90
2019-01-22T09:24:31.171Z,42.67
2019-01-22T09:27:06.990Z,37.57
2019-01-22T09:29:36.851Z,40.60
2019-01-22T09:32:06.750Z,40.70
2019-01-22T09:34:43.010Z,36.27
2019-01-22T09:37:12.913Z,39.50
2019-01-22T09:39:41.294Z,37.23
2019-01-22T09:42:09.634Z,37.70
2019-01-22T09:44:38.056Z,34.70
2019-01-22T09:47:06.348Z,38.33
2019-01-22T09:49:35.492Z,37.37
2019-01-22T09:52:04.139Z,39.60
2019-01-22T09:54:32.518Z,36.90
2019-01-22T09:57:00.879Z,31.37
2019-01-22T09:59:29.657Z,34.97
2019-01-22T10:01:58.464Z,28.80
2019-01-22T10:04:27.353Z,38.07
2019-01-22T10:06:56.144Z,35.17
2019-01-22T10:09:24.438Z,36.70
2019-01-22T10:11:52.823Z,33.67
2019-01-22T10:14:21.182Z,31.87
2019-01-22T10:16:49.653Z,39.13
2019-01-22T10:19:17.921Z,39.83
2019-01-22T10:21:46.709Z,38.13
2019-01-22T10:24:15.055Z,30.20
2019-01-22T10:26:43.534Z,38.63
2019-01-22T10:29:12.319Z,32.37
2019-01-22T10:31:40.831Z,37.70
2019-01-22T10:34:09.312Z,37.33
2019-01-22T10:36:37.736Z,34.57
2019-01-22T10:39:06.857Z,36.07
2019-01-22T10:41:35.263Z,35.27
2019-01-22T10:44:03.715Z,35.27
2019-01-22T10:46:32.020Z,40.73
2019-01-22T10:49:00.802Z,34.63
2019-01-22T10:51:29.149Z,34.27
2019-01-22T10:53:57.428Z,39.73
2019-01-22T10:56:25.744Z,31.40
2019-01-22T10:58:54.178Z,40.20
2019-01-22T11:01:22.486Z,36.30
2019-01-22T11:03:50.954Z,42.93
2019-01-22T11:06:19.646Z,37.37
2019-01-22T11:08:48.093Z,43.20
2019-01-22T11:11:16.458Z,40.50
2019-01-22T11:13:44.848Z,34.43
2019-01-22T11:16:13.358Z,34.13
2019-01-22T11:18:42.147Z,33.37
2019-01-22T11:21:10.721Z,34.17
2019-01-22T11:23:39.411Z,34.70
2019-01-22T11:26:07.863Z,33.73
2019-01-22T11:28:36.677Z,42.67
2019-01-22T11:31:05.361Z,40.37
2019-01-22T11:33:33.641Z,42.30
2019-01-22T11:36:01.898Z,37.33
2019-01-22T11:38:30.383Z,44.07
2019-01-22T11:40:58.839Z,41.60
2019-01-22T11:43:27.149Z,37.87
2019-01-22T11:45:55.491Z,34.67
2019-01-22T11:48:23.970Z,35.80
2019-01-22T11:50:52.685Z,40.33
2019-01-22T11:53:21.028Z,38.30
2019-01-22T11:55:50.630Z,39.30
2019-01-22T11:58:19.250Z,33.90
2019-01-22T12:00:49.398Z,39.90
2019-01-22T12:03:17.947Z,37.53
2019-01-22T12:05:46.735Z,35.50
2019-01-22T12:08:15.086Z,36.33
2019-01-22T12:10:43.496Z,40.10
2019-01-22T12:13:11.966Z,38.73
2019-01-22T12:15:41.559Z,40.57
2019-01-22T12:18:09.939Z,44.50
2019-01-22T12:20:40.172Z,43.90
2019-01-22T12:23:08.755Z,43.47
2019-01-22T12:25:37.166Z,41.63
2019-01-22T12:28:05.917Z,48.97
2019-01-22T12:30:35.608Z,44.03
2019-01-22T12:33:05.442Z,42.27
2019-01-22T12:35:33.915Z,46.87
2019-01-22T12:38:02.494Z,46.70
2019-01-22T12:40:30.847Z,43.80
2019-01-22T12:42:59.522Z,41.30
2019-01-22T12:45:29.574Z,44.37
2019-01-22T12:47:58.023Z,49.20
2019-01-22T12:50:27.247Z,39.53
2019-01-22T12:52:55.601Z,43.03
2019-01-22T12:55:23.927Z,45.20
2019-01-22T12:57:52.193Z,45.93
2019-01-22T13:00:24.744Z,39.63
2019-01-22T13:02:53.202Z,40.30
2019-01-22T13:05:23.091Z,40.53
2019-01-22T13:07:51.900Z,36.03
2019-01-22T13:10:20.275Z,38.13
2019-01-22T13:12:49.063Z,32.87
2019-01-22T13:15:17.572Z,30.23
2019-01-22T13:17:45.918Z,40.40
2019-01-22T13:20:15.935Z,40.73
2019-01-22T13:22:44.752Z,36.87
2019-01-22T13:25:13.713Z,40.07
2019-01-22T13:27:42.091Z,38.80
2019-01-22T13:30:14.771Z,34.30
2019-01-22T13:32:43.146Z,37.77
2019-01-22T13:35:11.627Z,34.77
2019-01-22T13:37:40.061Z,41.63
2019-01-22T13:40:09.938Z,39.47
2019-01-22T13:42:38.323Z,40.33
2019-01-22T13:45:36.907Z,37.73
2019-01-22T13:48:07.025Z,41.60
2019-01-22T13:50:35.502Z,40.20
2019-01-22T13:53:04.496Z,41.30
2019-01-22T13:55:34.379Z,40.87
2019-01-22T13:58:02.669Z,37.10
2019-01-22T14:00:31.064Z,40.53
2019-01-22T14:03:00.566Z,43.07
2019-01-22T14:05:29.028Z,45.17
2019-01-22T14:07:57.800Z,44.93
2019-01-22T14:10:26.285Z,39.00
2019-01-22T14:12:54.706Z,40.80
2019-01-22T14:15:27.231Z,41.03
2019-01-22T14:17:55.632Z,41.23
2019-01-22T14:20:24.339Z,39.00
2019-01-22T14:22:52.593Z,36.63
2019-01-22T14:25:21.441Z,38.40
2019-01-22T14:27:49.928Z,36.07
2019-01-22T14:30:23.135Z,44.60
2019-01-22T14:32:51.522Z,39.50
2019-01-22T14:35:20.339Z,43.87
2019-01-22T14:37:48.768Z,41.83
2019-01-22T14:40:17.131Z,42.83
2019-01-22T14:42:45.575Z,37.70
2019-01-22T14:45:15.414Z,42.57
2019-01-22T14:47:43.810Z,40.93
2019-01-22T14:50:13.724Z,41.00
2019-01-22T14:52:42.437Z,43.30
2019-01-22T14:55:10.990Z,36.87
2019-01-22T14:57:39.378Z,36.63
2019-01-22T15:00:09.281Z,41.83
2019-01-22T15:02:37.654Z,36.50
2019-01-22T15:05:06.752Z,39.20
2019-01-22T15:07:35.149Z,44.53
2019-01-22T15:10:04.631Z,43.90
2019-01-22T15:12:32.924Z,42.20
2019-01-22T15:15:01.303Z,52.63
2019-01-22T15:17:29.772Z,38.40
2019-01-22T15:19:58.173Z,43.53
2019-01-22T15:22:26.516Z,37.47
2019-01-22T15:24:55.909Z,42.83
2019-01-22T15:27:24.227Z,42.77
2019-01-22T15:29:52.609Z,44.30
2019-01-22T15:32:21.283Z,42.87
2019-01-22T15:34:49.629Z,52.60
2019-01-22T15:37:18.006Z,49.97
2019-01-22T15:39:46.688Z,48.60
2019-01-22T15:42:15.078Z,50.67
2019-01-22T15:44:43.481Z,55.33
2019-01-22T15:47:12.061Z,54.50
2019-01-22T15:49:40.403Z,59.13
2019-01-22T15:52:09.426Z,59.25
2019-01-22T15:54:38.021Z,49.88
2019-01-22T15:57:06.663Z,51.73
2019-01-22T15:59:37.100Z,57.88
2019-01-22T16:02:05.665Z,56.90
2019-01-22T16:04:34.660Z,61.45
2019-01-22T16:07:03.271Z,66.87
2019-01-22T16:09:32.338Z,56.75
2019-01-22T16:12:01.026Z,66.55
2019-01-22T16:14:29.702Z,68.40
2019-01-22T16:16:58.410Z,59.13
2019-01-22T16:19:27.080Z,67.78
2019-01-22T16:21:55.674Z,66.07
2019-01-22T16:24:24.782Z,52.70
2019-01-22T16:26:53.584Z,63.52
2019-01-22T16:29:22.225Z,62.93
2019-01-22T16:31:50.903Z,67.40
2019-01-22T16:34:19.821Z,72.22
2019-01-22T16:36:48.474Z,78.75
2019-01-22T16:39:17.069Z,65.55
2019-01-22T16:41:45.628Z,77.80
2019-01-22T16:44:14.662Z,74.37
2019-01-22T16:46:43.269Z,68.55
2019-01-22T16:49:11.928Z,66.20
2019-01-22T16:51:40.584Z,67.00
2019-01-22T16:54:09.173Z,62.80
2019-01-22T16:56:38.142Z,69.90
2019-01-22T16:59:07.137Z,75.92
2019-01-22T17:01:36.330Z,67.58
2019-01-22T17:04:05.386Z,69.80
2019-01-22T17:06:34.313Z,71.25
2019-01-22T17:09:04.780Z,74.82
2019-01-22T17:11:34.140Z,70.55
2019-01-22T17:14:03.133Z,80.83
2019-01-22T17:16:32.034Z,76.15
2019-01-22T17:19:01.052Z,69.17
2019-01-22T17:21:30.205Z,71.85
2019-01-22T17:23:59.608Z,79.25
2019-01-22T17:26:28.740Z,72.08
2019-01-22T17:28:57.618Z,67.85
2019-01-22T17:31:33.857Z,91.75
2019-01-22T17:34:02.549Z,67.97
2019-01-22T17:36:31.569Z,67.08
2019-01-22T17:39:01.763Z,82.65
2019-01-22T17:41:30.344Z,84.00
2019-01-22T17:43:58.940Z,76.25
2019-01-22T17:46:27.944Z,73.90
2019-01-22T17:48:56.597Z,71.40
2019-01-22T17:51:25.519Z,68.15
2019-01-22T17:53:54.171Z,75.85
2019-01-22T17:56:22.733Z,70.85
2019-01-22T17:58:51.386Z,81.37
2019-01-22T18:01:19.946Z,73.57
2019-01-22T18:03:48.505Z,76.72
2019-01-22T18:06:17.187Z,77.65
2019-01-22T18:08:45.743Z,76.47
2019-01-22T18:11:14.686Z,74.55
2019-01-22T18:13:43.369Z,71.85
2019-01-22T18:16:12.333Z,78.47
2019-01-22T18:18:40.920Z,86.10
2019-01-22T18:21:09.828Z,86.40
2019-01-22T18:23:38.394Z,90.38
2019-01-22T18:26:07.096Z,77.40
2019-01-22T18:28:35.755Z,79.80
2019-01-22T18:31:05.573Z,77.80
2019-01-22T18:33:34.478Z,100.60
2019-01-22T18:36:03.143Z,90.92
2019-01-22T18:38:31.766Z,83.60
2019-01-22T18:41:00.808Z,78.67
2019-01-22T18:43:29.376Z,90.00
2019-01-22T18:45:58.123Z,91.87
2019-01-22T18:48:26.760Z,85.30
2019-01-22T18:50:55.780Z,74.37
2019-01-22T18:53:24.670Z,77.80
2019-01-22T18:55:53.356Z,80.17
2019-01-22T18:58:22.185Z,86.70
2019-01-22T19:00:52.682Z,83.20
2019-01-22T19:03:21.559Z,74.62
2019-01-22T19:05:50.126Z,83.17
2019-01-22T19:08:18.796Z,78.05
2019-01-22T19:10:47.374Z,77.10
2019-01-22T19:13:15.937Z,81.02
2019-01-22T19:15:44.948Z,76.42
2019-01-22T19:18:13.517Z,68.75
2019-01-22T19:20:42.215Z,64.62
2019-01-22T19:23:10.800Z,86.47
2019-01-22T19:25:39.482Z,74.07
2019-01-22T19:28:08.115Z,82.47
2019-01-22T19:30:38.387Z,77.37
2019-01-22T19:33:07.254Z,113.47
2019-01-22T19:35:36.066Z,79.80
2019-01-22T19:38:04.705Z,83.30
2019-01-22T19:40:33.376Z,69.55
2019-01-22T19:43:02.012Z,67.55
2019-01-22T19:45:31.822Z,72.20
2019-01-22T19:48:01.480Z,76.82
2019-01-22T19:50:29.997Z,72.42
2019-01-22T19:52:58.565Z,66.85
2019-01-22T19:55:27.172Z,75.40
2019-01-22T19:57:55.855Z,67.00
2019-01-22T20:00:27.342Z,81.90
2019-01-22T20:02:56.433Z,70.65
2019-01-22T20:05:25.022Z,66.80
2019-01-22T20:07:53.624Z,66.40
2019-01-22T20:10:24.162Z,71.12
2019-01-22T20:12:52.740Z,73.62
2019-01-22T20:15:24.272Z,72.70
2019-01-22T20:17:53.420Z,70.57
2019-01-22T20:20:22.064Z,64.00
2019-01-22T20:22:50.652Z,73.90
2019-01-22T20:25:19.286Z,83.00
2019-01-22T20:27:48.655Z,70.78
2019-01-22T20:30:21.696Z,69.87
2019-01-22T20:32:50.440Z,80.57
2019-01-22T20:35:19.080Z,81.15
2019-01-22T20:37:48.112Z,69.27
2019-01-22T20:40:16.767Z,73.92
2019-01-22T20:42:45.383Z,75.32
2019-01-22T20:45:18.193Z,70.95
2019-01-22T20:47:46.838Z,70.95
2019-01-22T20:50:19.278Z,67.25
2019-01-22T20:52:45.854Z,65.17
2019-01-22T20:55:16.176Z,64.82
2019-01-22T20:57:44.758Z,81.57
2019-01-22T21:00:14.881Z,83.52
2019-01-22T21:02:43.515Z,67.62
2019-01-22T21:05:14.222Z,68.95
2019-01-22T21:07:42.818Z,76.05
2019-01-22T21:10:18.519Z,67.45
2019-01-22T21:12:47.084Z,63.33
2019-01-22T21:15:15.742Z,66.17
2019-01-22T21:17:44.398Z,72.20
2019-01-22T21:20:16.913Z,71.40
2019-01-22T21:22:45.938Z,64.20
2019-01-22T21:25:15.848Z,65.00
2019-01-22T21:27:44.694Z,68.92
2019-01-22T21:30:14.855Z,61.28
2019-01-22T21:32:43.500Z,72.62
2019-01-22T21:35:12.356Z,72.82
2019-01-22T21:37:41.011Z,74.72
2019-01-22T21:40:10.752Z,66.70
2019-01-22T21:42:39.350Z,70.85
2019-01-22T21:45:12.284Z,68.57
2019-01-22T21:47:40.882Z,63.38
2019-01-22T21:50:11.087Z,71.95
2019-01-22T21:52:39.752Z,67.75
2019-01-22T21:55:10.122Z,66.87
2019-01-22T21:57:39.190Z,75.65
2019-01-22T22:00:09.836Z,70.25
2019-01-22T22:02:38.422Z,73.20
2019-01-22T22:05:08.522Z,72.45
2019-01-22T22:07:37.168Z,73.20
2019-01-22T22:10:07.348Z,69.05
2019-01-22T22:12:36.035Z,68.50
2019-01-22T22:15:06.150Z,69.22
2019-01-22T22:17:36.707Z,62.90
2019-01-22T22:20:06.693Z,65.65
2019-01-22T22:22:35.346Z,66.72
2019-01-22T22:25:07.634Z,62.10
2019-01-22T22:27:38.071Z,72.42
2019-01-22T22:30:26.255Z,74.22
2019-01-22T22:32:54.895Z,65.65
2019-01-22T22:35:23.474Z,64.12
2019-01-22T22:37:52.236Z,64.58
2019-01-22T22:40:21.355Z,70.08
2019-01-22T22:42:50.154Z,66.35
2019-01-22T22:45:19.954Z,62.45
2019-01-22T22:47:48.969Z,65.83
2019-01-22T22:50:19.140Z,73.95
2019-01-22T22:52:48.261Z,71.42
2019-01-22T22:55:17.226Z,65.52
2019-01-22T22:57:46.243Z,62.95
2019-01-22T23:00:33.156Z,73.12
2019-01-22T23:03:02.434Z,78.78
2019-01-22T23:05:31.652Z,65.95
2019-01-22T23:08:00.217Z,67.50
2019-01-22T23:10:28.994Z,60.63
2019-01-22T23:12:57.567Z,66.47
2019-01-22T23:15:26.870Z,76.07
2019-01-22T23:17:55.570Z,68.17
2019-01-22T23:20:24.577Z,59.40
2019-01-22T23:22:53.194Z,66.55
2019-01-22T23:25:22.152Z,62.58
2019-01-22T23:27:50.723Z,66.55
2019-01-22T23:30:19.485Z,67.20
2019-01-22T23:32:48.406Z,67.70
2019-01-22T23:35:17.221Z,64.77
2019-01-22T23:37:45.786Z,60.63
2019-01-22T23:40:15.584Z,57.98
2019-01-22T23:42:44.222Z,60.92
2019-01-22T23:45:13.675Z,60.52
2019-01-22T23:47:42.558Z,64.58
2019-01-22T23:50:12.132Z,70.32
2019-01-22T23:52:40.747Z,57.25
2019-01-22T23:55:10.847Z,62.05
2019-01-22T23:57:41.123Z,68.80
